createdAt,value
2018-12-17T00:01:19.815Z,101473.80
2018-12-17T00:03:47.373Z,101471.63
2018-12-17T00:06:15.016Z,101469.89
2018-12-17T00:08:42.609Z,101473.82
2018-12-17T00:11:10.557Z,101472.92
2018-12-17T00:13:38.097Z,101466.80
2018-12-17T00:16:05.680Z,101469.01
2018-12-17T00:18:33.252Z,101463.35
2018-12-17T00:21:00.828Z,101460.31
2018-12-17T00:23:28.404Z,101469.02
2018-12-17T00:25:56.001Z,101468.16
2018-12-17T00:28:23.562Z,101466.45
2018-12-17T00:30:51.111Z,101462.05
2018-12-17T00:33:18.684Z,101463.36
2018-12-17T00:35:46.304Z,101465.55
2018-12-17T00:38:13.985Z,101460.74
2018-12-17T00:40:41.521Z,101461.20
2018-12-17T00:43:09.126Z,101459.44
2018-12-17T00:45:36.716Z,101462.06
2018-12-17T00:48:04.336Z,101459.44
2018-12-17T00:50:31.916Z,101462.51
2018-12-17T00:52:59.443Z,101455.98
2018-12-17T00:55:27.336Z,101465.13
2018-12-17T00:57:54.929Z,101456.87
2018-12-17T01:00:22.476Z,101455.09
2018-12-17T01:02:50.098Z,101456.83
2018-12-17T01:05:17.666Z,101456.41
2018-12-17T01:07:45.290Z,101462.06
2018-12-17T01:10:12.869Z,101472.52
2018-12-17T01:12:40.436Z,101465.14
2018-12-17T01:15:08.687Z,101473.41
2018-12-17T01:17:36.305Z,101472.52
2018-12-17T01:20:04.901Z,101475.61
2018-12-17T01:22:32.507Z,101481.27
2018-12-17T01:25:00.097Z,101480.83
2018-12-17T01:27:27.700Z,101475.61
2018-12-17T01:29:55.264Z,101488.22
2018-12-17T01:32:22.940Z,101488.69
2018-12-17T01:34:50.509Z,101476.91
2018-12-17T01:37:18.102Z,101483.05
2018-12-17T01:39:45.748Z,101482.16
2018-12-17T01:42:13.326Z,101487.40
2018-12-17T01:44:41.054Z,101481.75
2018-12-17T01:47:08.672Z,101486.97
2018-12-17T01:49:36.411Z,101484.77
2018-12-17T01:52:03.979Z,101481.69
2018-12-17T01:54:31.563Z,101499.99
2018-12-17T01:56:59.149Z,101490.42
2018-12-17T01:59:26.718Z,101506.53
2018-12-17T02:01:54.345Z,101507.43
2018-12-17T02:04:21.926Z,101511.78
2018-12-17T02:06:49.550Z,101512.23
2018-12-17T02:09:17.197Z,101523.12
2018-12-17T02:11:44.768Z,101517.02
2018-12-17T02:14:12.312Z,101518.78
2018-12-17T02:16:40.793Z,101527.05
2018-12-17T02:19:08.358Z,101523.55
2018-12-17T02:21:35.919Z,101523.12
2018-12-17T02:24:03.542Z,101525.69
2018-12-17T02:26:31.287Z,101523.53
2018-12-17T02:28:58.833Z,101521.81
2018-12-17T02:31:26.408Z,101520.98
2018-12-17T02:33:54.016Z,101527.94
2018-12-17T02:36:21.625Z,101521.39
2018-12-17T02:38:49.178Z,101520.94
2018-12-17T02:41:16.787Z,101517.88
2018-12-17T02:43:44.383Z,101528.35
2018-12-17T02:46:11.900Z,101533.59
2018-12-17T02:48:39.881Z,101541.87
2018-12-17T02:51:07.462Z,101537.10
2018-12-17T02:53:35.055Z,101537.52
2018-12-17T02:56:02.712Z,101539.25
2018-12-17T02:58:30.343Z,101541.87
2018-12-17T03:00:57.921Z,101540.12
2018-12-17T03:03:25.549Z,101542.28
2018-12-17T03:05:53.127Z,101544.06
2018-12-17T03:08:20.673Z,101551.91
2018-12-17T03:10:48.321Z,101547.99
2018-12-17T03:13:15.897Z,101547.99
2018-12-17T03:15:43.551Z,101552.80
2018-12-17T03:18:11.145Z,101550.14
2018-12-17T03:20:38.717Z,101544.05
2018-12-17T03:23:06.329Z,101549.70
2018-12-17T03:25:33.934Z,101553.64
2018-12-17T03:28:01.519Z,101559.34
2018-12-17T03:30:29.124Z,101568.45
2018-12-17T03:32:56.736Z,101572.84
2018-12-17T03:35:24.357Z,101571.97
2018-12-17T03:37:51.954Z,101569.39
2018-12-17T03:40:19.540Z,101573.31
2018-12-17T03:42:47.126Z,101575.47
2018-12-17T03:45:14.671Z,101577.66
2018-12-17T03:47:42.303Z,101574.58
2018-12-17T03:50:09.912Z,101578.50
2018-12-17T03:52:37.475Z,101571.55
2018-12-17T03:55:05.274Z,101582.48
2018-12-17T03:57:32.867Z,101584.20
2018-12-17T04:00:00.406Z,101587.25
2018-12-17T04:02:28.034Z,101583.80
2018-12-17T04:04:55.885Z,101582.06
2018-12-17T04:07:23.604Z,101588.59
2018-12-17T04:09:51.445Z,101584.25
2018-12-17T04:12:19.099Z,101585.56
2018-12-17T04:14:46.690Z,101585.16
2018-12-17T04:17:14.280Z,101591.23
2018-12-17T04:19:41.870Z,101592.53
2018-12-17T04:22:09.504Z,101596.45
2018-12-17T04:24:37.051Z,101602.11
2018-12-17T04:27:04.681Z,101604.30
2018-12-17T04:29:32.268Z,101603.42
2018-12-17T04:31:59.910Z,101591.65
2018-12-17T04:34:27.529Z,101599.91
2018-12-17T04:36:55.139Z,101598.59
2018-12-17T04:39:22.749Z,101602.95
2018-12-17T04:41:50.350Z,101610.38
2018-12-17T04:44:17.998Z,101605.55
2018-12-17T04:46:45.598Z,101605.09
2018-12-17T04:49:13.222Z,101622.98
2018-12-17T04:51:40.765Z,101621.20
2018-12-17T04:54:08.345Z,101621.66
2018-12-17T04:56:35.902Z,101619.04
2018-12-17T04:59:03.511Z,101624.27
2018-12-17T05:01:31.070Z,101626.84
2018-12-17T05:03:58.710Z,101630.34
2018-12-17T05:06:26.308Z,101634.69
2018-12-17T05:08:53.866Z,101635.12
2018-12-17T05:11:21.497Z,101633.81
2018-12-17T05:13:49.071Z,101643.39
2018-12-17T05:16:16.826Z,101640.77
2018-12-17T05:18:44.432Z,101647.73
2018-12-17T05:21:12.024Z,101647.77
2018-12-17T05:23:39.626Z,101649.50
2018-12-17T05:26:07.237Z,101649.94
2018-12-17T05:28:34.844Z,101650.81
2018-12-17T05:31:02.465Z,101655.17
2018-12-17T05:33:30.219Z,101657.36
2018-12-17T05:35:57.935Z,101654.74
2018-12-17T05:38:25.571Z,101652.97
2018-12-17T05:40:53.278Z,101656.47
2018-12-17T05:43:20.878Z,101658.62
2018-12-17T05:45:48.424Z,101662.12
2018-12-17T05:48:16.021Z,101662.55
2018-12-17T05:50:43.602Z,101665.62
2018-12-17T05:53:11.638Z,101669.52
2018-12-17T05:55:39.206Z,101670.86
2018-12-17T05:58:06.769Z,101676.06
2018-12-17T06:00:34.361Z,101684.37
2018-12-17T06:03:01.974Z,101681.72
2018-12-17T06:05:29.665Z,101688.73
2018-12-17T06:07:57.253Z,101693.08
2018-12-17T06:10:24.847Z,101682.66
2018-12-17T06:12:52.464Z,101693.09
2018-12-17T06:15:20.088Z,101692.23
2018-12-17T06:17:47.688Z,101695.70
2018-12-17T06:20:15.266Z,101703.12
2018-12-17T06:22:42.889Z,101705.29
2018-12-17T06:25:10.501Z,101702.25
2018-12-17T06:27:38.688Z,101707.48
2018-12-17T06:30:06.335Z,101707.95
2018-12-17T06:32:33.891Z,101712.30
2018-12-17T06:35:01.624Z,101708.80
2018-12-17T06:37:29.185Z,101714.03
2018-12-17T06:39:56.796Z,101715.34
2018-12-17T06:42:24.393Z,101713.60
2018-12-17T06:44:52.025Z,101716.64
2018-12-17T06:47:19.630Z,101717.53
2018-12-17T06:49:47.210Z,101721.46
2018-12-17T06:52:14.792Z,101725.39
2018-12-17T06:54:42.633Z,101736.70
2018-12-17T06:57:09.859Z,101736.29
2018-12-17T06:59:42.679Z,101739.80
2018-12-17T07:02:07.589Z,101731.09
2018-12-17T07:04:35.165Z,101728.44
2018-12-17T07:07:02.803Z,101734.13
2018-12-17T07:09:30.370Z,101729.31
2018-12-17T07:11:57.972Z,101728.00
2018-12-17T07:14:25.561Z,101726.70
2018-12-17T07:16:53.167Z,101727.59
2018-12-17T07:19:20.750Z,101735.45
2018-12-17T07:21:48.476Z,101727.17
2018-12-17T07:24:16.050Z,101751.61
2018-12-17T07:26:43.637Z,101767.33
2018-12-17T07:29:11.284Z,101770.83
2018-12-17T07:31:39.014Z,101776.06
2018-12-17T07:34:06.602Z,101775.18
2018-12-17T07:36:34.136Z,101776.06
2018-12-17T07:39:01.734Z,101772.98
2018-12-17T07:41:29.354Z,101774.30
2018-12-17T07:43:56.937Z,101777.80
2018-12-17T07:46:24.553Z,101777.80
2018-12-17T07:48:52.137Z,101780.41
2018-12-17T07:51:19.739Z,101790.89
2018-12-17T07:53:47.335Z,101783.92
2018-12-17T07:56:14.940Z,101785.23
2018-12-17T07:58:42.465Z,101792.20
2018-12-17T08:01:10.063Z,101790.03
2018-12-17T08:03:37.665Z,101805.72
2018-12-17T08:06:05.264Z,101805.28
2018-12-17T08:08:35.594Z,101812.72
2018-12-17T08:11:02.467Z,101820.54
2018-12-17T08:13:30.294Z,101817.92
2018-12-17T08:15:57.888Z,101814.00
2018-12-17T08:18:25.453Z,101812.26
2018-12-17T08:20:53.061Z,101815.30
2018-12-17T08:23:20.620Z,101814.88
2018-12-17T08:25:48.587Z,101820.97
2018-12-17T08:28:16.212Z,101823.59
2018-12-17T08:30:43.801Z,101836.68
2018-12-17T08:33:11.379Z,101829.25
2018-12-17T08:35:38.969Z,101830.98
2018-12-17T08:38:06.673Z,101830.98
2018-12-17T08:40:34.237Z,101832.72
2018-12-17T08:43:01.847Z,101832.30
2018-12-17T08:45:30.493Z,101829.25
2018-12-17T08:47:58.323Z,101830.98
2018-12-17T08:50:25.907Z,101830.98
2018-12-17T08:52:53.465Z,101835.34
2018-12-17T08:55:21.106Z,101833.59
2018-12-17T08:57:48.727Z,101841.45
2018-12-17T09:00:16.320Z,101838.84
2018-12-17T09:02:43.951Z,101838.84
2018-12-17T09:05:11.525Z,101841.88
2018-12-17T09:07:39.450Z,101837.95
2018-12-17T09:10:07.685Z,101842.77
2018-12-17T09:12:35.257Z,101834.91
2018-12-17T09:15:03.218Z,101832.72
2018-12-17T09:17:30.932Z,101837.95
2018-12-17T09:19:58.482Z,101839.27
2018-12-17T09:22:26.068Z,101833.14
2018-12-17T09:24:53.690Z,101836.61
2018-12-17T09:27:21.342Z,101837.49
2018-12-17T09:29:48.991Z,101845.35
2018-12-17T09:32:16.550Z,101839.65
2018-12-17T09:34:44.181Z,101839.64
2018-12-17T09:37:11.819Z,101838.77
2018-12-17T09:39:39.760Z,101843.58
2018-12-17T09:42:07.366Z,101847.05
2018-12-17T09:44:34.946Z,101853.17
2018-12-17T09:47:02.524Z,101847.94
2018-12-17T09:49:30.112Z,101845.31
2018-12-17T09:51:57.726Z,101847.47
2018-12-17T09:54:25.306Z,101850.55
2018-12-17T09:56:52.880Z,101847.94
2018-12-17T09:59:20.499Z,101855.37
2018-12-17T10:01:50.690Z,101857.53
2018-12-17T10:04:19.117Z,101851.44
2018-12-17T10:06:46.859Z,101851.44
2018-12-17T10:09:14.499Z,101857.14
2018-12-17T10:11:42.183Z,101854.95
2018-12-17T10:14:09.911Z,101850.13
2018-12-17T10:16:37.448Z,101851.87
2018-12-17T10:19:05.074Z,101849.70
2018-12-17T10:21:32.704Z,101855.83
2018-12-17T10:24:00.325Z,101854.95
2018-12-17T10:26:28.265Z,101848.43
2018-12-17T10:28:55.913Z,101853.64
2018-12-17T10:31:23.537Z,101851.91
2018-12-17T10:33:51.120Z,101854.48
2018-12-17T10:36:18.792Z,101857.53
2018-12-17T10:38:46.361Z,101854.48
2018-12-17T10:41:13.981Z,101839.61
2018-12-17T10:43:41.553Z,101840.50
2018-12-17T10:46:09.106Z,101837.42
2018-12-17T10:48:36.749Z,101836.14
2018-12-17T10:51:04.358Z,101836.98
2018-12-17T10:53:32.422Z,101834.79
2018-12-17T10:56:00.072Z,101842.19
2018-12-17T10:58:27.667Z,101833.05
2018-12-17T11:01:00.963Z,101837.83
2018-12-17T11:03:33.855Z,101828.66
2018-12-17T11:06:04.808Z,101819.91
2018-12-17T11:08:32.403Z,101822.11
2018-12-17T11:10:59.954Z,101809.86
2018-12-17T11:13:27.564Z,101811.59
2018-12-17T11:15:55.165Z,101804.61
2018-12-17T11:18:22.783Z,101823.37
2018-12-17T11:20:50.397Z,101817.70
2018-12-17T11:23:18.196Z,101812.90
2018-12-17T11:25:45.837Z,101809.01
2018-12-17T11:28:13.423Z,101813.78
2018-12-17T11:30:46.522Z,101820.76
2018-12-17T11:33:10.700Z,101814.20
2018-12-17T11:35:38.316Z,101812.47
2018-12-17T11:38:05.939Z,101809.86
2018-12-17T11:40:33.544Z,101814.20
2018-12-17T11:43:01.163Z,101810.73
2018-12-17T11:45:28.941Z,101818.14
2018-12-17T11:47:56.547Z,101813.78
2018-12-17T11:50:24.145Z,101811.59
2018-12-17T11:52:52.038Z,101814.20
2018-12-17T11:55:19.607Z,101810.73
2018-12-17T11:58:15.244Z,101818.14
2018-12-17T12:01:00.907Z,101815.97
2018-12-17T12:03:28.851Z,101817.28
2018-12-17T12:05:56.464Z,101820.75
2018-12-17T12:08:24.024Z,101823.84
2018-12-17T12:10:51.606Z,101824.69
2018-12-17T12:13:19.157Z,101819.91
2018-12-17T12:15:46.774Z,101820.75
2018-12-17T12:18:14.344Z,101824.26
2018-12-17T12:20:41.937Z,101830.39
2018-12-17T12:23:09.564Z,101833.86
2018-12-17T12:25:37.173Z,101837.36
2018-12-17T12:28:04.894Z,101838.25
2018-12-17T12:30:32.736Z,101839.56
2018-12-17T12:33:00.341Z,101832.12
2018-12-17T12:35:27.909Z,101837.41
2018-12-17T12:37:55.547Z,101830.86
2018-12-17T12:40:23.094Z,101833.91
2018-12-17T12:42:51.737Z,101830.40
2018-12-17T12:45:19.669Z,101834.33
2018-12-17T12:47:47.229Z,101829.97
2018-12-17T12:50:14.831Z,101823.42
2018-12-17T12:52:42.447Z,101833.44
2018-12-17T12:55:09.999Z,101835.64
2018-12-17T12:57:37.584Z,101835.64
2018-12-17T13:00:08.523Z,101839.14
2018-12-17T13:02:36.105Z,101838.68
2018-12-17T13:05:03.830Z,101833.90
2018-12-17T13:07:31.468Z,101831.28
2018-12-17T13:09:59.064Z,101833.44
2018-12-17T13:12:26.675Z,101828.61
2018-12-17T13:14:54.233Z,101835.17
2018-12-17T13:17:28.408Z,101839.09
2018-12-17T13:19:56.300Z,101842.14
2018-12-17T13:22:24.343Z,101839.52
2018-12-17T13:24:51.932Z,101836.48
2018-12-17T13:27:19.549Z,101849.16
2018-12-17T13:29:47.201Z,101843.91
2018-12-17T13:32:14.767Z,101844.80
2018-12-17T13:34:42.343Z,101839.56
2018-12-17T13:37:09.970Z,101846.53
2018-12-17T13:39:37.675Z,101847.89
2018-12-17T13:42:05.204Z,101843.96
2018-12-17T13:44:32.771Z,101841.34
2018-12-17T13:47:00.380Z,101842.19
2018-12-17T13:49:28.012Z,101845.70
2018-12-17T13:52:01.161Z,101845.70
2018-12-17T13:54:28.766Z,101846.58
2018-12-17T13:56:56.608Z,101846.16
2018-12-17T13:59:24.181Z,101846.63
2018-12-17T14:01:52.205Z,101855.33
2018-12-17T14:04:19.798Z,101862.34
2018-12-17T14:06:47.524Z,101864.96
2018-12-17T14:09:16.731Z,101866.27
2018-12-17T14:11:46.576Z,101865.81
2018-12-17T14:14:14.701Z,101869.74
2018-12-17T14:16:47.882Z,101875.44
2018-12-17T14:19:19.375Z,101878.48
2018-12-17T14:21:53.427Z,101881.53
2018-12-17T14:24:21.233Z,101884.15
2018-12-17T14:26:48.892Z,101878.91
2018-12-17T14:29:16.477Z,101879.34
2018-12-17T14:31:44.045Z,101878.91
2018-12-17T14:34:11.611Z,101880.64
2018-12-17T14:36:39.275Z,101888.93
2018-12-17T14:39:08.215Z,101885.03
2018-12-17T14:41:35.815Z,101890.70
2018-12-17T14:44:35.998Z,101892.02
2018-12-17T14:47:03.605Z,101895.52
2018-12-17T14:49:31.202Z,101902.49
2018-12-17T14:51:58.778Z,101904.23
2018-12-17T14:54:26.393Z,101910.31
2018-12-17T14:56:54.068Z,101911.20
2018-12-17T14:59:21.649Z,101912.51
2018-12-17T15:01:49.519Z,101915.56
2018-12-17T15:04:17.118Z,101919.06
2018-12-17T15:06:44.684Z,101915.13
2018-12-17T15:09:12.294Z,101916.02
2018-12-17T15:11:39.922Z,101908.13
2018-12-17T15:14:07.584Z,101912.51
2018-12-17T15:16:35.156Z,101905.08
2018-12-17T15:19:02.772Z,101909.47
2018-12-17T15:21:30.347Z,101903.77
2018-12-17T15:23:57.953Z,101908.58
2018-12-17T15:26:25.937Z,101917.29
2018-12-17T15:28:53.491Z,101915.13
2018-12-17T15:31:21.123Z,101920.80
2018-12-17T15:33:48.837Z,101920.34
2018-12-17T15:36:16.472Z,101923.42
2018-12-17T15:38:44.128Z,101919.91
2018-12-17T15:41:11.675Z,101924.69
2018-12-17T15:43:39.398Z,101925.16
2018-12-17T15:46:06.972Z,101920.77
2018-12-17T15:48:34.528Z,101923.84
2018-12-17T15:51:02.164Z,101924.73
2018-12-17T15:53:29.773Z,101924.27
2018-12-17T15:55:57.299Z,101924.69
2018-12-17T15:58:24.859Z,101924.27
2018-12-17T16:00:52.509Z,101932.98
2018-12-17T16:03:20.099Z,101930.82
2018-12-17T16:05:47.633Z,101926.89
2018-12-17T16:08:15.316Z,101938.26
2018-12-17T16:10:42.905Z,101937.83
2018-12-17T16:13:10.796Z,101943.50
2018-12-17T16:15:38.372Z,101945.69
2018-12-17T16:18:05.965Z,101945.69
2018-12-17T16:20:33.583Z,101943.95
2018-12-17T16:23:01.341Z,101956.17
2018-12-17T16:25:28.936Z,101958.37
2018-12-17T16:27:56.544Z,101966.66
2018-12-17T16:30:24.158Z,101971.47
2018-12-17T16:32:51.764Z,101971.47
2018-12-17T16:35:19.366Z,101965.34
2018-12-17T16:37:46.950Z,101969.70
2018-12-17T16:40:14.782Z,101964.89
2018-12-17T16:42:42.370Z,101960.53
2018-12-17T16:45:10.044Z,101965.73
2018-12-17T16:47:37.645Z,101965.73
2018-12-17T16:50:07.384Z,101971.87
2018-12-17T16:52:34.993Z,101972.33
2018-12-17T16:55:02.563Z,101973.18
2018-12-17T16:57:30.268Z,101983.66
2018-12-17T16:59:57.858Z,101985.86
2018-12-17T17:02:25.502Z,101988.02
2018-12-17T17:04:53.097Z,101988.02
2018-12-17T17:07:20.677Z,101995.03
2018-12-17T17:09:48.271Z,101995.03
2018-12-17T17:12:15.808Z,101991.95
2018-12-17T17:14:43.420Z,101989.33
2018-12-17T17:17:11.010Z,101990.21
2018-12-17T17:19:38.656Z,101991.09
2018-12-17T17:22:06.258Z,101989.36
2018-12-17T17:24:33.896Z,101991.98
2018-12-17T17:27:01.489Z,101992.83
2018-12-17T17:29:29.126Z,101995.03
2018-12-17T17:31:56.705Z,102003.77
2018-12-17T17:34:24.409Z,102003.77
2018-12-17T17:36:52.031Z,102007.28
2018-12-17T17:39:19.613Z,102010.75
2018-12-17T17:41:47.269Z,102011.64
2018-12-17T17:44:14.865Z,102018.62
2018-12-17T17:46:42.454Z,102016.45
2018-12-17T17:49:10.082Z,102017.77
2018-12-17T17:51:37.826Z,102018.62
2018-12-17T17:54:05.472Z,102011.18
2018-12-17T17:56:33.060Z,102012.49
2018-12-17T17:59:00.671Z,102013.37
2018-12-17T18:01:28.307Z,102011.18
2018-12-17T18:03:55.912Z,102006.83
2018-12-17T18:06:23.626Z,102013.80
2018-12-17T18:08:57.896Z,102012.49
2018-12-17T18:11:25.736Z,102013.37
2018-12-17T18:13:53.349Z,102007.25
2018-12-17T18:16:20.946Z,102010.75
2018-12-17T18:18:48.616Z,102009.87
2018-12-17T18:21:16.223Z,102012.49
2018-12-17T18:23:43.828Z,102018.62
2018-12-17T18:26:11.531Z,102016.85
2018-12-17T18:28:39.187Z,102017.73
2018-12-17T18:31:06.863Z,102017.73
2018-12-17T18:33:34.646Z,102016.88
2018-12-17T18:36:02.277Z,102012.95
2018-12-17T18:38:29.913Z,102019.92
2018-12-17T18:40:57.622Z,102021.23
2018-12-17T18:43:25.457Z,102025.59
2018-12-17T18:45:53.066Z,102014.68
2018-12-17T18:48:20.702Z,102022.55
2018-12-17T18:50:48.420Z,102020.35
2018-12-17T18:53:16.026Z,102025.59
2018-12-17T18:55:43.623Z,102026.02
2018-12-17T18:58:11.516Z,102032.15
2018-12-17T19:00:39.119Z,102034.31
2018-12-17T19:03:06.732Z,102037.83
2018-12-17T19:05:34.382Z,102042.19
2018-12-17T19:08:02.061Z,102043.49
2018-12-17T19:10:34.154Z,102048.73
2018-12-17T19:13:01.968Z,102038.25
2018-12-17T19:15:29.605Z,102037.82
2018-12-17T19:17:57.225Z,102039.56
2018-12-17T19:20:24.893Z,102043.48
2018-12-17T19:22:52.507Z,102047.85
2018-12-17T19:25:20.082Z,102042.19
2018-12-17T19:27:47.756Z,102041.33
2018-12-17T19:30:15.410Z,102043.48
2018-12-17T19:32:43.160Z,102052.23
2018-12-17T19:35:10.792Z,102052.66
2018-12-17T19:37:38.391Z,102052.23
2018-12-17T19:40:07.389Z,102058.36
2018-12-17T19:42:34.988Z,102060.53
2018-12-17T19:45:02.609Z,102064.89
2018-12-17T19:47:30.369Z,102067.54
2018-12-17T19:49:57.960Z,102066.66
2018-12-17T19:52:25.555Z,102066.23
2018-12-17T19:54:53.237Z,102067.54
2018-12-17T19:57:21.003Z,102064.03
2018-12-17T19:59:48.639Z,102065.34
2018-12-17T20:02:16.277Z,102058.80
2018-12-17T20:04:43.897Z,102067.96
2018-12-17T20:07:11.557Z,102065.34
2018-12-17T20:09:39.302Z,102073.20
2018-12-17T20:12:06.959Z,102071.02
2018-12-17T20:14:34.544Z,102069.70
2018-12-17T20:17:02.236Z,102070.16
2018-12-17T20:19:29.848Z,102075.41
2018-12-17T20:21:57.441Z,102083.69
2018-12-17T20:24:25.139Z,102081.95
2018-12-17T20:26:52.735Z,102081.49
2018-12-17T20:29:20.441Z,102082.38
2018-12-17T20:31:48.230Z,102091.11
2018-12-17T20:34:15.805Z,102092.44
2018-12-17T20:36:43.429Z,102087.19
2018-12-17T20:39:11.124Z,102091.58
2018-12-17T20:41:39.594Z,102091.14
2018-12-17T20:44:08.130Z,102101.63
2018-12-17T20:46:37.604Z,102089.83
2018-12-17T20:49:05.647Z,102092.45
2018-12-17T20:51:34.163Z,102087.64
2018-12-17T20:54:01.728Z,102081.52
2018-12-17T20:56:30.988Z,102085.46
2018-12-17T20:58:59.857Z,102087.66
2018-12-17T21:01:28.262Z,102081.97
2018-12-17T21:03:59.087Z,102076.73
2018-12-17T21:06:26.821Z,102082.83
2018-12-17T21:08:57.987Z,102087.17
2018-12-17T21:14:11.444Z,102089.39
2018-12-17T21:16:39.917Z,102095.94
2018-12-17T21:19:07.803Z,102088.94
2018-12-17T21:21:36.888Z,102089.36
2018-12-17T21:24:04.819Z,102092.44
2018-12-17T21:26:32.842Z,102092.44
2018-12-17T21:29:00.947Z,102089.82
2018-12-17T21:31:28.618Z,102090.67
2018-12-17T21:33:56.727Z,102090.25
2018-12-17T21:36:24.532Z,102088.51
2018-12-17T21:38:52.844Z,102089.81
2018-12-17T21:44:06.061Z,102098.09
2018-12-17T21:46:34.104Z,102089.38
2018-12-17T21:49:02.462Z,102086.77
2018-12-17T21:51:30.567Z,102082.83
2018-12-17T21:53:58.241Z,102084.99
2018-12-17T21:56:25.982Z,102092.00
2018-12-17T21:58:53.799Z,102094.20
2018-12-17T22:01:22.340Z,102100.28
2018-12-17T22:03:50.978Z,102105.09
2018-12-17T22:06:18.690Z,102103.78
2018-12-17T22:08:46.322Z,102104.25
2018-12-17T22:11:14.025Z,102105.98
2018-12-17T22:13:44.853Z,102116.47
2018-12-17T22:16:12.575Z,102113.42
2018-12-17T22:18:40.300Z,102112.96
2018-12-17T22:21:08.802Z,102117.78
2018-12-17T22:23:36.710Z,102118.20
2018-12-17T22:26:04.549Z,102116.02
2018-12-17T22:28:32.771Z,102122.14
2018-12-17T22:31:00.591Z,102125.64
2018-12-17T22:33:28.476Z,102119.51
2018-12-17T22:35:56.539Z,102126.52
2018-12-17T22:38:24.301Z,102130.88
2018-12-17T22:40:52.019Z,102131.77
2018-12-17T22:43:19.894Z,102129.58
2018-12-17T22:45:47.493Z,102133.50
2018-12-17T22:48:22.100Z,102133.08
2018-12-17T22:50:50.410Z,102133.05
2018-12-17T22:53:18.153Z,102133.50
2018-12-17T22:55:45.915Z,102133.51
2018-12-17T22:58:13.951Z,102130.86
2018-12-17T23:00:41.874Z,102140.04
2018-12-17T23:03:09.851Z,102133.48
2018-12-17T23:05:37.724Z,102137.42
2018-12-17T23:08:05.458Z,102142.67
2018-12-17T23:10:44.896Z,102139.19
2018-12-17T23:13:23.797Z,102143.09
2018-12-17T23:16:02.942Z,102142.22
2018-12-17T23:18:29.642Z,102138.31
2018-12-17T23:20:57.762Z,102136.55
2018-12-17T23:23:25.506Z,102138.73
2018-12-17T23:25:53.380Z,102134.80
2018-12-17T23:28:21.676Z,102137.85
2018-12-17T23:30:49.454Z,102134.38
2018-12-17T23:33:17.677Z,102134.81
2018-12-17T23:35:45.316Z,102141.79
2018-12-17T23:38:17.148Z,102140.48
2018-12-17T23:40:45.263Z,102142.67
2018-12-17T23:43:12.946Z,102139.63
2018-12-17T23:45:41.099Z,102144.41
2018-12-17T23:48:08.798Z,102139.60
2018-12-17T23:50:36.461Z,102143.53
2018-12-17T23:53:04.334Z,102151.42
2018-12-17T23:55:32.546Z,102146.59
2018-12-17T23:58:01.048Z,102150.98
